createdAt,value
2019-03-23T00:02:16.876Z,86.29
2019-03-23T00:04:45.174Z,87.03
2019-03-23T00:07:13.520Z,86.89
2019-03-23T00:09:41.862Z,87.21
2019-03-23T00:12:10.145Z,87.73
2019-03-23T00:14:38.393Z,88.38
2019-03-23T00:17:06.676Z,89.10
2019-03-23T00:19:35.038Z,89.64
2019-03-23T00:22:03.518Z,90.27
2019-03-23T00:24:31.797Z,90.76
2019-03-23T00:27:00.328Z,91.13
2019-03-23T00:29:28.698Z,90.82
2019-03-23T00:31:57.044Z,91.20
2019-03-23T00:34:25.362Z,91.34
2019-03-23T00:36:53.713Z,91.48
2019-03-23T00:39:21.937Z,91.77
2019-03-23T00:41:50.831Z,91.87
2019-03-23T00:44:19.156Z,91.54
2019-03-23T00:46:47.534Z,91.40
2019-03-23T00:49:15.966Z,90.90
2019-03-23T00:51:44.404Z,90.45
2019-03-23T00:54:12.674Z,90.15
2019-03-23T00:56:41.130Z,90.12
2019-03-23T00:59:09.470Z,90.80
2019-03-23T01:01:37.916Z,91.62
2019-03-23T01:04:06.147Z,91.61
2019-03-23T01:06:35.010Z,91.77
2019-03-23T01:09:04.930Z,91.87
2019-03-23T01:11:33.340Z,92.11
2019-03-23T01:14:01.599Z,91.74
2019-03-23T01:16:29.991Z,91.64
2019-03-23T01:18:58.458Z,91.21
2019-03-23T01:21:27.086Z,91.13
2019-03-23T01:23:55.466Z,91.10
2019-03-23T01:26:23.763Z,90.90
2019-03-23T01:28:52.030Z,91.26
2019-03-23T01:31:20.339Z,91.55
2019-03-23T01:33:48.589Z,91.44
2019-03-23T01:36:16.896Z,91.21
2019-03-23T01:38:45.151Z,90.52
2019-03-23T01:41:13.583Z,90.30
2019-03-23T01:43:41.911Z,90.72
2019-03-23T01:46:10.903Z,90.72
2019-03-23T01:48:39.204Z,90.27
2019-03-23T01:51:08.675Z,89.98
2019-03-23T01:53:36.895Z,89.51
2019-03-23T01:56:05.246Z,89.29
2019-03-23T01:58:33.605Z,89.08
2019-03-23T02:01:01.870Z,89.09
2019-03-23T02:03:30.697Z,89.05
2019-03-23T02:05:58.992Z,89.11
2019-03-23T02:08:31.799Z,89.70
2019-03-23T02:11:00.161Z,89.96
2019-03-23T02:13:28.459Z,90.19
2019-03-23T02:15:56.689Z,91.22
2019-03-23T02:18:24.996Z,91.43
2019-03-23T02:20:53.922Z,91.47
2019-03-23T02:23:22.739Z,91.66
2019-03-23T02:25:51.021Z,91.54
2019-03-23T02:28:19.317Z,91.04
2019-03-23T02:30:47.647Z,90.44
2019-03-23T02:33:15.969Z,89.94
2019-03-23T02:35:44.249Z,89.32
2019-03-23T02:38:12.649Z,88.78
2019-03-23T02:40:41.070Z,87.91
2019-03-23T02:43:09.512Z,87.20
2019-03-23T02:45:37.883Z,86.99
2019-03-23T02:48:06.915Z,86.62
2019-03-23T02:50:35.172Z,86.18
2019-03-23T02:53:03.624Z,85.80
2019-03-23T02:55:31.876Z,85.48
2019-03-23T02:58:00.169Z,85.32
2019-03-23T03:00:28.435Z,85.14
2019-03-23T03:02:56.818Z,85.07
2019-03-23T03:05:25.070Z,84.85
2019-03-23T03:07:53.394Z,84.95
2019-03-23T03:10:49.805Z,86.62
2019-03-23T03:13:18.131Z,87.98
2019-03-23T03:15:46.405Z,89.29
2019-03-23T03:18:14.702Z,90.08
2019-03-23T03:20:42.989Z,90.20
2019-03-23T03:23:11.270Z,90.00
2019-03-23T03:25:39.625Z,89.19
2019-03-23T03:28:07.953Z,89.22
2019-03-23T03:30:36.313Z,89.23
2019-03-23T03:33:05.323Z,88.97
2019-03-23T03:35:33.544Z,88.19
2019-03-23T03:38:01.805Z,87.25
2019-03-23T03:40:30.152Z,87.02
2019-03-23T03:42:58.630Z,86.60
2019-03-23T03:45:27.520Z,86.21
2019-03-23T03:47:56.328Z,86.36
2019-03-23T03:50:24.773Z,86.80
2019-03-23T03:52:53.925Z,87.02
2019-03-23T03:55:23.295Z,86.59
2019-03-23T03:57:52.002Z,86.52
2019-03-23T04:00:20.453Z,86.50
2019-03-23T04:02:48.684Z,86.58
2019-03-23T04:05:17.118Z,86.40
2019-03-23T04:07:45.490Z,86.09
2019-03-23T04:10:13.897Z,85.69
2019-03-23T04:12:53.171Z,85.16
2019-03-23T04:15:21.447Z,84.83
2019-03-23T04:17:49.688Z,84.67
2019-03-23T04:20:18.102Z,84.47
2019-03-23T04:22:46.553Z,84.23
2019-03-23T04:25:14.931Z,84.21
2019-03-23T04:27:43.164Z,83.94
2019-03-23T04:30:12.013Z,83.74
2019-03-23T04:32:40.437Z,83.54
2019-03-23T04:35:08.926Z,83.32
2019-03-23T04:37:37.141Z,83.44
2019-03-23T04:40:06.111Z,83.21
2019-03-23T04:42:34.405Z,82.89
2019-03-23T04:45:03.564Z,83.03
2019-03-23T04:47:31.969Z,83.10
2019-03-23T04:50:00.904Z,83.40
2019-03-23T04:52:29.392Z,84.00
2019-03-23T04:54:58.347Z,84.58
2019-03-23T04:57:26.590Z,85.00
2019-03-23T04:59:54.888Z,85.65
2019-03-23T05:02:23.160Z,86.02
2019-03-23T05:04:51.465Z,86.07
2019-03-23T05:07:19.790Z,85.50
2019-03-23T05:09:48.083Z,85.09
2019-03-23T05:12:17.444Z,84.58
2019-03-23T05:14:48.729Z,84.47
2019-03-23T05:17:17.082Z,84.09
2019-03-23T05:19:46.118Z,83.95
2019-03-23T05:22:14.565Z,83.82
2019-03-23T05:24:42.884Z,83.63
2019-03-23T05:27:11.150Z,83.51
2019-03-23T05:29:40.774Z,83.91
2019-03-23T05:32:09.011Z,84.48
2019-03-23T05:34:37.340Z,84.85
2019-03-23T05:37:05.608Z,84.81
2019-03-23T05:39:33.913Z,84.52
2019-03-23T05:42:02.179Z,84.47
2019-03-23T05:44:30.481Z,84.47
2019-03-23T05:46:59.055Z,84.40
2019-03-23T05:49:27.401Z,85.14
2019-03-23T05:51:55.749Z,85.34
2019-03-23T05:54:24.071Z,85.18
2019-03-23T05:56:52.344Z,85.07
2019-03-23T05:59:21.145Z,85.97
2019-03-23T06:01:49.468Z,86.29
2019-03-23T06:04:17.748Z,87.25
2019-03-23T06:06:46.085Z,88.82
2019-03-23T06:09:14.471Z,89.69
2019-03-23T06:11:42.792Z,89.52
2019-03-23T06:14:11.953Z,89.47
2019-03-23T06:16:42.316Z,90.40
2019-03-23T06:19:10.667Z,91.21
2019-03-23T06:21:39.014Z,92.55
2019-03-23T06:24:07.258Z,93.46
2019-03-23T06:26:35.570Z,93.81
2019-03-23T06:29:03.915Z,93.28
2019-03-23T06:31:32.242Z,94.84
2019-03-23T06:34:00.496Z,95.79
2019-03-23T06:36:28.827Z,95.80
2019-03-23T06:39:05.174Z,96.12
2019-03-23T06:41:27.266Z,96.31
2019-03-23T06:43:55.515Z,96.38
2019-03-23T06:46:23.840Z,97.25
2019-03-23T06:48:52.156Z,96.75
2019-03-23T06:51:20.495Z,96.26
2019-03-23T06:53:48.797Z,95.17
2019-03-23T06:56:17.121Z,95.14
2019-03-23T06:58:45.379Z,96.02
2019-03-23T07:01:13.738Z,95.29
2019-03-23T07:03:42.097Z,95.06
2019-03-23T07:06:10.428Z,95.75
2019-03-23T07:08:38.720Z,94.34
2019-03-23T07:11:07.162Z,93.92
2019-03-23T07:13:35.431Z,92.50
2019-03-23T07:16:04.528Z,91.91
2019-03-23T07:18:32.833Z,92.06
2019-03-23T07:21:01.152Z,90.07
2019-03-23T07:23:30.292Z,89.15
2019-03-23T07:25:58.601Z,90.34
2019-03-23T07:28:26.858Z,89.38
2019-03-23T07:30:55.198Z,89.80
2019-03-23T07:33:23.472Z,89.35
2019-03-23T07:35:51.802Z,89.20
2019-03-23T07:38:20.043Z,88.15
2019-03-23T07:40:48.479Z,88.02
2019-03-23T07:43:16.758Z,86.78
2019-03-23T07:45:45.028Z,86.45
2019-03-23T07:48:13.357Z,86.74
2019-03-23T07:50:42.100Z,86.54
2019-03-23T07:53:10.989Z,85.59
2019-03-23T07:55:39.472Z,84.96
2019-03-23T07:58:08.647Z,83.51
2019-03-23T08:00:37.008Z,83.01
2019-03-23T08:03:05.504Z,82.63
2019-03-23T08:05:33.901Z,82.13
2019-03-23T08:08:02.221Z,81.50
2019-03-23T08:10:31.994Z,81.18
2019-03-23T08:13:00.492Z,80.81
2019-03-23T08:15:28.969Z,81.14
2019-03-23T08:17:57.425Z,79.68
2019-03-23T08:20:25.862Z,79.74
2019-03-23T08:22:54.708Z,79.14
2019-03-23T08:25:23.306Z,78.78
2019-03-23T08:27:51.750Z,79.27
2019-03-23T08:30:21.046Z,81.56
2019-03-23T08:32:49.622Z,77.94
2019-03-23T08:35:17.904Z,77.20
2019-03-23T08:37:46.325Z,74.29
2019-03-23T08:40:14.605Z,76.34
2019-03-23T08:42:42.893Z,74.23
2019-03-23T08:45:11.435Z,74.03
2019-03-23T08:47:39.756Z,74.09
2019-03-23T08:50:08.327Z,72.22
2019-03-23T08:52:36.847Z,72.22
2019-03-23T08:55:05.344Z,70.03
2019-03-23T08:57:33.636Z,70.03
2019-03-23T09:00:01.897Z,70.15
2019-03-23T09:02:30.209Z,68.38
2019-03-23T09:04:58.491Z,68.01
2019-03-23T09:07:26.803Z,68.01
2019-03-23T09:09:59.393Z,66.99
2019-03-23T09:12:26.087Z,66.99
2019-03-23T09:14:54.385Z,67.98
2019-03-23T09:17:22.665Z,68.48
2019-03-23T09:19:51.802Z,67.66
2019-03-23T09:22:20.910Z,64.83
2019-03-23T09:24:49.281Z,66.07
2019-03-23T09:27:17.720Z,66.65
2019-03-23T09:29:45.974Z,65.18
2019-03-23T09:32:14.582Z,64.43
2019-03-23T09:34:42.914Z,64.47
2019-03-23T09:37:11.319Z,64.61
2019-03-23T09:39:39.716Z,64.51
2019-03-23T09:42:07.948Z,64.16
2019-03-23T09:44:37.940Z,64.07
2019-03-23T09:47:06.391Z,65.62
2019-03-23T09:49:34.796Z,63.76
2019-03-23T09:52:04.067Z,63.02
2019-03-23T09:54:36.430Z,62.16
2019-03-23T09:57:04.895Z,60.41
2019-03-23T09:59:33.219Z,60.41
2019-03-23T10:02:01.679Z,62.86
2019-03-23T10:04:30.112Z,61.30
2019-03-23T10:06:58.386Z,60.03
2019-03-23T10:09:26.844Z,60.79
2019-03-23T10:11:55.554Z,60.77
2019-03-23T10:14:23.848Z,60.05
2019-03-23T10:16:52.216Z,61.32
2019-03-23T10:19:20.511Z,61.05
2019-03-23T10:21:48.857Z,61.05
2019-03-23T10:24:17.282Z,60.07
2019-03-23T10:26:45.737Z,60.64
2019-03-23T10:29:14.075Z,60.81
2019-03-23T10:31:42.304Z,60.50
2019-03-23T10:34:10.637Z,59.75
2019-03-23T10:36:38.961Z,59.08
2019-03-23T10:39:07.268Z,58.99
2019-03-23T10:41:35.631Z,58.85
2019-03-23T10:44:04.020Z,58.94
2019-03-23T10:46:32.365Z,59.06
2019-03-23T10:49:00.669Z,57.16
2019-03-23T10:51:28.985Z,56.75
2019-03-23T10:53:57.521Z,57.27
2019-03-23T10:56:35.806Z,57.15
2019-03-23T10:59:04.193Z,56.99
2019-03-23T11:01:32.465Z,55.66
2019-03-23T11:04:00.727Z,55.85
2019-03-23T11:06:29.829Z,55.13
2019-03-23T11:08:58.113Z,55.16
2019-03-23T11:11:26.457Z,54.40
2019-03-23T11:13:54.829Z,54.31
2019-03-23T11:16:23.609Z,53.92
2019-03-23T11:18:52.046Z,53.42
2019-03-23T11:21:20.325Z,52.87
2019-03-23T11:23:48.620Z,52.23
2019-03-23T11:26:16.886Z,52.33
2019-03-23T11:28:45.228Z,52.47
2019-03-23T11:31:13.721Z,51.29
2019-03-23T11:33:41.972Z,50.85
2019-03-23T11:36:10.525Z,50.95
2019-03-23T11:38:39.376Z,51.10
2019-03-23T11:41:07.660Z,50.39
2019-03-23T11:43:35.886Z,50.52
2019-03-23T11:46:04.406Z,50.34
2019-03-23T11:48:32.699Z,49.75
2019-03-23T11:51:01.653Z,49.74
2019-03-23T11:53:30.585Z,49.23
2019-03-23T11:55:58.880Z,48.17
2019-03-23T11:58:27.154Z,47.56
2019-03-23T12:00:55.491Z,47.15
2019-03-23T12:03:23.729Z,46.42
2019-03-23T12:05:52.119Z,44.99
2019-03-23T12:08:20.382Z,44.29
2019-03-23T12:10:48.718Z,45.04
2019-03-23T12:13:16.976Z,43.65
2019-03-23T12:15:45.264Z,44.71
2019-03-23T12:18:13.731Z,44.80
2019-03-23T12:20:43.409Z,43.65
2019-03-23T12:23:11.767Z,43.97
2019-03-23T12:25:40.250Z,43.69
2019-03-23T12:28:09.380Z,43.43
2019-03-23T12:30:38.049Z,41.75
2019-03-23T12:33:07.037Z,42.09
2019-03-23T12:35:35.360Z,42.88
2019-03-23T12:38:03.699Z,43.54
2019-03-23T12:40:32.016Z,42.67
2019-03-23T12:43:00.265Z,41.70
2019-03-23T12:45:28.762Z,39.13
2019-03-23T12:47:56.994Z,40.30
2019-03-23T12:50:25.850Z,39.43
2019-03-23T12:52:54.263Z,40.28
2019-03-23T12:55:22.564Z,40.13
2019-03-23T12:57:50.845Z,39.54
2019-03-23T13:00:19.380Z,39.70
2019-03-23T13:02:47.748Z,38.82
2019-03-23T13:05:16.041Z,39.07
2019-03-23T13:07:44.282Z,38.29
2019-03-23T13:10:12.982Z,38.20
2019-03-23T13:12:41.415Z,36.79
2019-03-23T13:15:10.733Z,36.81
2019-03-23T13:17:39.090Z,36.38
2019-03-23T13:20:08.817Z,36.18
2019-03-23T13:22:37.363Z,36.22
2019-03-23T13:25:07.205Z,36.32
2019-03-23T13:27:35.589Z,37.60
2019-03-23T13:30:04.825Z,37.27
2019-03-23T13:32:33.103Z,37.45
2019-03-23T13:35:01.344Z,37.35
2019-03-23T13:37:29.631Z,37.14
2019-03-23T13:39:57.866Z,36.86
2019-03-23T13:42:26.177Z,36.58
2019-03-23T13:44:54.503Z,37.64
2019-03-23T13:47:22.811Z,37.45
2019-03-23T13:49:51.080Z,37.20
2019-03-23T13:52:19.419Z,36.67
2019-03-23T13:54:47.708Z,37.52
2019-03-23T13:57:16.259Z,36.73
2019-03-23T13:59:44.492Z,37.02
2019-03-23T14:02:12.854Z,36.54
2019-03-23T14:04:41.154Z,37.32
2019-03-23T14:07:09.616Z,36.71
2019-03-23T14:09:37.858Z,36.14
2019-03-23T14:12:06.384Z,36.24
2019-03-23T14:14:34.682Z,36.01
2019-03-23T14:17:03.237Z,36.60
2019-03-23T14:19:31.625Z,36.56
2019-03-23T14:22:00.387Z,36.29
2019-03-23T14:24:28.658Z,36.90
2019-03-23T14:26:56.953Z,37.14
2019-03-23T14:29:25.219Z,37.01
2019-03-23T14:31:53.492Z,36.82
2019-03-23T14:34:21.829Z,36.87
2019-03-23T14:36:50.123Z,36.76
2019-03-23T14:39:18.374Z,37.16
2019-03-23T14:41:46.650Z,36.75
2019-03-23T14:44:14.871Z,37.20
2019-03-23T14:46:43.183Z,37.05
2019-03-23T14:49:11.525Z,37.19
2019-03-23T14:51:39.869Z,37.33
2019-03-23T14:54:08.195Z,37.56
2019-03-23T14:56:36.655Z,37.05
2019-03-23T14:59:04.995Z,37.09
2019-03-23T15:01:33.350Z,36.11
2019-03-23T15:04:01.545Z,36.97
2019-03-23T15:06:29.739Z,36.90
2019-03-23T15:08:58.234Z,36.79
2019-03-23T15:11:26.486Z,36.94
2019-03-23T15:13:54.891Z,36.79
2019-03-23T15:16:23.198Z,36.73
2019-03-23T15:18:52.510Z,36.84
2019-03-23T15:21:20.784Z,36.99
2019-03-23T15:23:49.198Z,37.00
2019-03-23T15:26:17.539Z,36.91
2019-03-23T15:28:45.915Z,36.30
2019-03-23T15:31:14.171Z,37.68
2019-03-23T15:33:44.376Z,37.18
2019-03-23T15:36:24.839Z,37.72
2019-03-23T15:38:53.107Z,38.18
2019-03-23T15:41:21.566Z,38.11
2019-03-23T15:43:49.841Z,37.12
2019-03-23T15:46:18.168Z,38.39
2019-03-23T15:48:46.481Z,38.56
2019-03-23T15:51:14.865Z,38.60
2019-03-23T15:53:43.177Z,37.71
2019-03-23T15:56:11.423Z,38.41
2019-03-23T15:58:39.754Z,38.54
2019-03-23T16:01:08.517Z,38.74
2019-03-23T16:03:36.908Z,38.94
2019-03-23T16:06:05.276Z,39.22
2019-03-23T16:08:33.582Z,39.50
2019-03-23T16:11:01.833Z,39.66
2019-03-23T16:13:30.174Z,40.11
2019-03-23T16:15:58.398Z,40.32
2019-03-23T16:18:26.803Z,40.15
2019-03-23T16:20:55.043Z,40.60
2019-03-23T16:23:23.362Z,40.87
2019-03-23T16:25:51.734Z,40.95
2019-03-23T16:28:20.039Z,40.97
2019-03-23T16:30:48.298Z,41.23
2019-03-23T16:33:16.608Z,41.44
2019-03-23T16:35:44.847Z,41.65
2019-03-23T16:38:13.129Z,41.78
2019-03-23T16:40:41.480Z,42.04
2019-03-23T16:43:09.840Z,42.15
2019-03-23T16:45:38.152Z,42.40
2019-03-23T16:48:06.378Z,42.57
2019-03-23T16:50:34.655Z,42.76
2019-03-23T16:53:03.203Z,42.84
2019-03-23T16:55:31.486Z,43.12
2019-03-23T16:57:59.807Z,43.23
2019-03-23T17:00:35.860Z,43.71
2019-03-23T17:03:04.478Z,44.04
2019-03-23T17:05:32.868Z,44.06
2019-03-23T17:08:01.126Z,44.06
2019-03-23T17:10:29.599Z,44.08
2019-03-23T17:12:57.831Z,44.60
2019-03-23T17:15:26.135Z,45.02
2019-03-23T17:17:54.346Z,45.25
2019-03-23T17:20:22.627Z,45.56
2019-03-23T17:22:50.863Z,45.73
2019-03-23T17:25:19.156Z,45.99
2019-03-23T17:27:47.433Z,46.28
2019-03-23T17:30:15.928Z,46.43
2019-03-23T17:32:44.265Z,46.53
2019-03-23T17:35:12.743Z,46.88
2019-03-23T17:37:40.993Z,47.09
2019-03-23T17:40:09.505Z,47.25
2019-03-23T17:42:37.752Z,47.39
2019-03-23T17:45:06.406Z,47.57
2019-03-23T17:47:34.774Z,47.75
2019-03-23T17:50:03.173Z,47.95
2019-03-23T17:52:31.470Z,48.17
2019-03-23T17:54:59.740Z,48.38
2019-03-23T17:57:28.001Z,48.50
2019-03-23T17:59:56.266Z,48.68
2019-03-23T18:02:24.590Z,48.88
2019-03-23T18:04:52.925Z,49.04
2019-03-23T18:07:21.355Z,49.23
2019-03-23T18:09:51.392Z,49.43
2019-03-23T18:12:19.658Z,49.61
2019-03-23T18:14:47.964Z,49.81
2019-03-23T18:17:16.201Z,50.02
2019-03-23T18:19:46.460Z,50.17
2019-03-23T18:22:14.701Z,50.39
2019-03-23T18:24:43.011Z,50.56
2019-03-23T18:27:11.272Z,50.79
2019-03-23T18:29:40.672Z,51.03
2019-03-23T18:32:08.961Z,51.26
2019-03-23T18:34:37.176Z,51.48
2019-03-23T18:37:06.203Z,51.67
2019-03-23T18:39:34.533Z,51.85
2019-03-23T18:42:09.317Z,51.79
2019-03-23T18:44:37.638Z,52.15
2019-03-23T18:47:06.056Z,52.20
2019-03-23T18:49:36.365Z,52.47
2019-03-23T18:52:04.975Z,52.79
2019-03-23T18:54:33.287Z,52.88
2019-03-23T18:57:01.677Z,52.97
2019-03-23T18:59:30.037Z,53.20
2019-03-23T19:01:58.362Z,53.38
2019-03-23T19:04:26.724Z,54.00
2019-03-23T19:06:55.098Z,53.80
2019-03-23T19:09:23.353Z,53.91
2019-03-23T19:11:52.044Z,54.06
2019-03-23T19:14:20.305Z,54.21
2019-03-23T19:16:48.842Z,54.37
2019-03-23T19:19:17.890Z,54.51
2019-03-23T19:21:46.204Z,54.81
2019-03-23T19:24:14.530Z,54.83
2019-03-23T19:26:43.362Z,55.08
2019-03-23T19:29:11.569Z,55.17
2019-03-23T19:31:39.822Z,54.83
2019-03-23T19:34:08.737Z,54.79
2019-03-23T19:36:37.050Z,56.23
2019-03-23T19:39:08.393Z,56.04
2019-03-23T19:41:37.893Z,57.24
2019-03-23T19:44:07.686Z,58.19
2019-03-23T19:46:36.402Z,59.97
2019-03-23T19:49:04.706Z,61.57
2019-03-23T19:51:33.205Z,62.95
2019-03-23T19:54:01.812Z,63.52
2019-03-23T19:56:30.143Z,64.04
2019-03-23T19:58:58.513Z,63.59
2019-03-23T20:01:27.595Z,63.87
2019-03-23T20:03:55.996Z,64.25
2019-03-23T20:06:24.510Z,63.51
2019-03-23T20:08:53.254Z,64.31
2019-03-23T20:11:21.964Z,64.40
2019-03-23T20:13:58.400Z,65.15
2019-03-23T20:16:21.034Z,66.48
2019-03-23T20:18:49.524Z,66.64
2019-03-23T20:21:18.882Z,67.29
2019-03-23T20:23:47.915Z,66.97
2019-03-23T20:26:17.124Z,67.12
2019-03-23T20:28:45.409Z,64.54
2019-03-23T20:31:13.795Z,61.69
2019-03-23T20:33:43.533Z,61.50
2019-03-23T20:36:11.876Z,62.18
2019-03-23T20:38:40.373Z,61.99
2019-03-23T20:41:08.587Z,62.54
2019-03-23T20:43:37.366Z,64.68
2019-03-23T20:46:06.018Z,64.68
2019-03-23T20:48:36.462Z,65.66
2019-03-23T20:51:04.833Z,64.37
2019-03-23T20:53:33.552Z,64.27
2019-03-23T20:56:02.016Z,66.62
2019-03-23T20:58:30.572Z,66.62
2019-03-23T21:00:59.078Z,66.38
2019-03-23T21:03:27.416Z,65.49
2019-03-23T21:05:55.911Z,65.43
2019-03-23T21:08:24.222Z,66.10
2019-03-23T21:10:52.772Z,65.65
2019-03-23T21:13:22.480Z,64.70
2019-03-23T21:15:50.777Z,65.19
2019-03-23T21:18:19.294Z,65.49
2019-03-23T21:20:47.614Z,65.57
2019-03-23T21:23:16.030Z,65.53
2019-03-23T21:25:44.706Z,66.15
2019-03-23T21:28:13.235Z,66.58
2019-03-23T21:30:41.488Z,66.97
2019-03-23T21:33:09.966Z,66.73
2019-03-23T21:35:38.308Z,66.84
2019-03-23T21:38:06.752Z,67.21
2019-03-23T21:40:35.297Z,67.86
2019-03-23T21:43:03.964Z,68.34
2019-03-23T21:45:32.369Z,68.96
2019-03-23T21:48:00.935Z,69.10
2019-03-23T21:50:29.371Z,69.14
2019-03-23T21:52:57.679Z,69.33
2019-03-23T21:55:26.095Z,68.52
2019-03-23T21:57:54.439Z,68.57
2019-03-23T22:00:31.315Z,68.57
2019-03-23T22:02:59.956Z,68.51
2019-03-23T22:05:28.357Z,68.51
2019-03-23T22:07:56.681Z,68.23
2019-03-23T22:10:26.131Z,69.12
2019-03-23T22:12:54.600Z,68.11
2019-03-23T22:15:23.111Z,68.27
2019-03-23T22:17:51.446Z,68.27
2019-03-23T22:20:19.729Z,67.90
2019-03-23T22:22:48.175Z,67.60
2019-03-23T22:25:16.404Z,67.60
2019-03-23T22:27:44.743Z,66.98
2019-03-23T22:30:13.555Z,66.95
2019-03-23T22:32:41.910Z,66.89
2019-03-23T22:35:11.385Z,66.89
2019-03-23T22:37:39.941Z,66.38
2019-03-23T22:40:09.130Z,65.99
2019-03-23T22:42:38.529Z,65.99
2019-03-23T22:45:08.754Z,65.75
2019-03-23T22:47:37.007Z,65.75
2019-03-23T22:50:06.212Z,65.76
2019-03-23T22:52:34.570Z,65.65
2019-03-23T22:55:03.358Z,65.67
2019-03-23T22:57:31.675Z,66.08
2019-03-23T23:00:00.345Z,66.08
2019-03-23T23:02:28.859Z,65.81
2019-03-23T23:04:57.191Z,66.06
2019-03-23T23:07:25.436Z,66.66
2019-03-23T23:09:53.727Z,67.46
2019-03-23T23:12:21.975Z,67.32
2019-03-23T23:14:52.529Z,66.87
2019-03-23T23:17:21.057Z,68.07
2019-03-23T23:19:49.316Z,68.07
2019-03-23T23:22:19.363Z,67.58
2019-03-23T23:24:47.618Z,67.58
2019-03-23T23:27:15.835Z,67.75
2019-03-23T23:29:44.124Z,67.73
2019-03-23T23:32:12.499Z,67.90
2019-03-23T23:34:40.865Z,67.81
2019-03-23T23:37:09.114Z,68.19
2019-03-23T23:39:37.536Z,68.25
2019-03-23T23:42:05.819Z,68.25
2019-03-23T23:44:34.122Z,68.12
2019-03-23T23:47:02.371Z,68.34
2019-03-23T23:49:30.684Z,68.34
2019-03-23T23:51:58.910Z,68.60
2019-03-23T23:54:27.275Z,68.79
2019-03-23T23:56:55.569Z,68.94
2019-03-23T23:59:23.848Z,68.94
